Terminal Aerodrome Forecast
Issued by NWS Pittsburgh, PA

Current Version | Previous Version | Graphics & Text | Print | Product List | Glossary On
Versions: 1 2 3 4 5 6 7 8 9 10 11 12 13 14 15 16 17 18 19 20 21 22 23 24
399
FTUS41 KPBZ 292108 AAB
TAFPIT
TAF AMD
KPIT 292108Z 2921/3024 29008KT P6SM VCTS BKN080CB
     FM300100 18004KT P6SM BKN100
     FM301500 28006KT P6SM SCT050=

USA.gov is the U.S. government's official web portal to all federal, state and local government web resources and services.